sensor_id;sensor_type;location;lat;lon;timestamp;temperature;humidity
72380;SHT30;60354;47.798;12.472;2023-08-24T00:01:32;22.69;85.38
72380;SHT30;60354;47.798;12.472;2023-08-24T00:03:57;22.75;85.19
72380;SHT30;60354;47.798;12.472;2023-08-24T00:06:22;22.76;85.16
72380;SHT30;60354;47.798;12.472;2023-08-24T00:08:48;22.70;84.68
72380;SHT30;60354;47.798;12.472;2023-08-24T00:11:13;22.66;84.95
72380;SHT30;60354;47.798;12.472;2023-08-24T00:13:41;22.73;84.84
72380;SHT30;60354;47.798;12.472;2023-08-24T00:16:11;22.77;84.86
72380;SHT30;60354;47.798;12.472;2023-08-24T00:18:37;22.80;84.61
72380;SHT30;60354;47.798;12.472;2023-08-24T00:21:02;22.69;84.44
72380;SHT30;60354;47.798;12.472;2023-08-24T00:23:28;22.58;84.79
72380;SHT30;60354;47.798;12.472;2023-08-24T00:25:53;22.56;85.12
72380;SHT30;60354;47.798;12.472;2023-08-24T00:28:19;22.59;85.02
72380;SHT30;60354;47.798;12.472;2023-08-24T00:30:44;22.58;84.81
72380;SHT30;60354;47.798;12.472;2023-08-24T00:33:10;22.62;84.59
72380;SHT30;60354;47.798;12.472;2023-08-24T00:35:36;22.59;84.73
72380;SHT30;60354;47.798;12.472;2023-08-24T00:38:02;22.60;84.76
72380;SHT30;60354;47.798;12.472;2023-08-24T00:40:27;22.53;85.06
72380;SHT30;60354;47.798;12.472;2023-08-24T00:42:53;22.53;85.02
72380;SHT30;60354;47.798;12.472;2023-08-24T00:45:18;22.58;84.98
72380;SHT30;60354;47.798;12.472;2023-08-24T00:47:46;22.63;85.02
72380;SHT30;60354;47.798;12.472;2023-08-24T00:50:13;22.65;84.94
72380;SHT30;60354;47.798;12.472;2023-08-24T00:52:41;22.60;85.22
72380;SHT30;60354;47.798;12.472;2023-08-24T00:55:07;22.52;85.13
72380;SHT30;60354;47.798;12.472;2023-08-24T00:57:33;22.59;84.69
72380;SHT30;60354;47.798;12.472;2023-08-24T01:00:02;22.58;84.76
72380;SHT30;60354;47.798;12.472;2023-08-24T01:02:28;22.56;85.39
72380;SHT30;60354;47.798;12.472;2023-08-24T01:04:54;22.56;85.28
72380;SHT30;60354;47.798;12.472;2023-08-24T01:07:20;22.58;85.44
72380;SHT30;60354;47.798;12.472;2023-08-24T01:09:46;22.62;85.29
72380;SHT30;60354;47.798;12.472;2023-08-24T01:17:26;22.41;85.57
72380;SHT30;60354;47.798;12.472;2023-08-24T01:19:54;22.32;85.75
72380;SHT30;60354;47.798;12.472;2023-08-24T01:25:24;22.41;85.94
72380;SHT30;60354;47.798;12.472;2023-08-24T01:27:55;22.45;85.88
72380;SHT30;60354;47.798;12.472;2023-08-24T01:30:21;22.46;85.74
72380;SHT30;60354;47.798;12.472;2023-08-24T01:32:46;22.41;86.12
72380;SHT30;60354;47.798;12.472;2023-08-24T01:35:12;22.25;86.76
72380;SHT30;60354;47.798;12.472;2023-08-24T01:37:38;22.15;86.96
72380;SHT30;60354;47.798;12.472;2023-08-24T01:40:12;22.12;87.03
72380;SHT30;60354;47.798;12.472;2023-08-24T01:42:52;22.22;86.58
72380;SHT30;60354;47.798;12.472;2023-08-24T01:45:22;22.29;86.24
72380;SHT30;60354;47.798;12.472;2023-08-24T01:47:49;22.28;86.12
72380;SHT30;60354;47.798;12.472;2023-08-24T01:50:16;22.25;85.87
72380;SHT30;60354;47.798;12.472;2023-08-24T01:52:42;22.32;85.69
72380;SHT30;60354;47.798;12.472;2023-08-24T01:55:08;22.32;85.54
72380;SHT30;60354;47.798;12.472;2023-08-24T01:57:33;22.28;85.43
72380;SHT30;60354;47.798;12.472;2023-08-24T01:59:59;22.28;85.24
72380;SHT30;60354;47.798;12.472;2023-08-24T02:02:24;22.27;84.85
72380;SHT30;60354;47.798;12.472;2023-08-24T02:04:50;22.29;84.89
72380;SHT30;60354;47.798;12.472;2023-08-24T02:07:16;22.27;84.86
72380;SHT30;60354;47.798;12.472;2023-08-24T02:09:42;22.25;84.52
72380;SHT30;60354;47.798;12.472;2023-08-24T02:12:07;22.14;85.08
72380;SHT30;60354;47.798;12.472;2023-08-24T02:14:33;22.04;85.21
72380;SHT30;60354;47.798;12.472;2023-08-24T02:16:58;21.97;85.62
72380;SHT30;60354;47.798;12.472;2023-08-24T02:19:24;21.97;85.53
72380;SHT30;60354;47.798;12.472;2023-08-24T02:21:49;21.94;85.36
72380;SHT30;60354;47.798;12.472;2023-08-24T02:24:15;21.90;85.32
72380;SHT30;60354;47.798;12.472;2023-08-24T02:26:40;21.81;85.60
72380;SHT30;60354;47.798;12.472;2023-08-24T02:29:06;21.93;85.40
72380;SHT30;60354;47.798;12.472;2023-08-24T02:31:31;21.98;85.46
72380;SHT30;60354;47.798;12.472;2023-08-24T02:33:57;21.97;85.44
72380;SHT30;60354;47.798;12.472;2023-08-24T02:36:23;21.96;85.57
72380;SHT30;60354;47.798;12.472;2023-08-24T02:38:48;21.96;86.34
72380;SHT30;60354;47.798;12.472;2023-08-24T02:41:14;21.94;86.48
72380;SHT30;60354;47.798;12.472;2023-08-24T02:43:40;22.00;86.46
72380;SHT30;60354;47.798;12.472;2023-08-24T02:46:08;22.05;86.22
72380;SHT30;60354;47.798;12.472;2023-08-24T02:48:34;22.05;86.12
72380;SHT30;60354;47.798;12.472;2023-08-24T02:51:03;22.12;86.13
72380;SHT30;60354;47.798;12.472;2023-08-24T02:53:28;22.09;85.89
72380;SHT30;60354;47.798;12.472;2023-08-24T02:55:58;22.08;86.29
72380;SHT30;60354;47.798;12.472;2023-08-24T02:58:23;22.08;86.06
72380;SHT30;60354;47.798;12.472;2023-08-24T03:00:49;22.09;86.10
72380;SHT30;60354;47.798;12.472;2023-08-24T03:03:15;22.11;85.83
72380;SHT30;60354;47.798;12.472;2023-08-24T03:05:41;22.05;85.98
72380;SHT30;60354;47.798;12.472;2023-08-24T03:08:07;21.97;85.87
72380;SHT30;60354;47.798;12.472;2023-08-24T03:10:36;21.90;86.38
72380;SHT30;60354;47.798;12.472;2023-08-24T03:13:01;21.88;86.21
72380;SHT30;60354;47.798;12.472;2023-08-24T03:15:29;21.81;86.25
72380;SHT30;60354;47.798;12.472;2023-08-24T03:17:55;21.80;85.97
72380;SHT30;60354;47.798;12.472;2023-08-24T03:20:21;21.80;86.13
72380;SHT30;60354;47.798;12.472;2023-08-24T03:22:47;21.71;86.25
72380;SHT30;60354;47.798;12.472;2023-08-24T03:25:13;21.73;86.11
72380;SHT30;60354;47.798;12.472;2023-08-24T03:27:38;21.78;85.96
72380;SHT30;60354;47.798;12.472;2023-08-24T03:30:05;21.61;86.65
72380;SHT30;60354;47.798;12.472;2023-08-24T03:32:30;21.61;86.34
72380;SHT30;60354;47.798;12.472;2023-08-24T03:34:59;21.46;86.79
72380;SHT30;60354;47.798;12.472;2023-08-24T03:37:25;21.33;87.17
72380;SHT30;60354;47.798;12.472;2023-08-24T03:39:51;21.39;86.85
72380;SHT30;60354;47.798;12.472;2023-08-24T03:42:17;21.50;86.50
72380;SHT30;60354;47.798;12.472;2023-08-24T03:44:43;21.57;86.06
72380;SHT30;60354;47.798;12.472;2023-08-24T03:47:08;21.53;86.30
72380;SHT30;60354;47.798;12.472;2023-08-24T03:49:34;21.45;86.28
72380;SHT30;60354;47.798;12.472;2023-08-24T03:52:00;21.25;87.11
72380;SHT30;60354;47.798;12.472;2023-08-24T03:54:26;21.19;87.24
72380;SHT30;60354;47.798;12.472;2023-08-24T03:56:52;21.13;87.60
72380;SHT30;60354;47.798;12.472;2023-08-24T03:59:19;21.16;87.27
72380;SHT30;60354;47.798;12.472;2023-08-24T04:01:46;21.20;87.25
72380;SHT30;60354;47.798;12.472;2023-08-24T04:04:11;21.03;87.81
72380;SHT30;60354;47.798;12.472;2023-08-24T04:06:37;21.06;87.58
72380;SHT30;60354;47.798;12.472;2023-08-24T04:09:02;21.12;87.87
72380;SHT30;60354;47.798;12.472;2023-08-24T04:11:28;21.05;88.11
72380;SHT30;60354;47.798;12.472;2023-08-24T04:13:53;21.00;87.98
72380;SHT30;60354;47.798;12.472;2023-08-24T04:16:19;21.02;87.72
72380;SHT30;60354;47.798;12.472;2023-08-24T04:18:44;20.91;88.27
72380;SHT30;60354;47.798;12.472;2023-08-24T04:21:10;20.67;89.08
72380;SHT30;60354;47.798;12.472;2023-08-24T04:23:36;20.72;88.84
72380;SHT30;60354;47.798;12.472;2023-08-24T04:26:01;20.71;88.68
72380;SHT30;60354;47.798;12.472;2023-08-24T04:28:28;20.81;88.76
72380;SHT30;60354;47.798;12.472;2023-08-24T04:30:55;20.92;88.17
72380;SHT30;60354;47.798;12.472;2023-08-24T04:33:23;21.08;88.16
72380;SHT30;60354;47.798;12.472;2023-08-24T04:35:49;20.99;88.70
72380;SHT30;60354;47.798;12.472;2023-08-24T04:38:16;21.02;88.03
72380;SHT30;60354;47.798;12.472;2023-08-24T04:40:59;21.10;87.34
72380;SHT30;60354;47.798;12.472;2023-08-24T04:43:25;21.15;87.28
72380;SHT30;60354;47.798;12.472;2023-08-24T04:45:53;21.08;87.66
72380;SHT30;60354;47.798;12.472;2023-08-24T04:48:23;21.09;87.60
72380;SHT30;60354;47.798;12.472;2023-08-24T04:50:49;21.13;87.54
72380;SHT30;60354;47.798;12.472;2023-08-24T04:53:18;21.22;87.39
72380;SHT30;60354;47.798;12.472;2023-08-24T04:55:44;21.20;87.43
72380;SHT30;60354;47.798;12.472;2023-08-24T04:58:10;21.26;87.22
72380;SHT30;60354;47.798;12.472;2023-08-24T05:00:36;21.13;87.62
72380;SHT30;60354;47.798;12.472;2023-08-24T05:03:03;21.00;88.21
72380;SHT30;60354;47.798;12.472;2023-08-24T05:05:30;21.00;88.15
72380;SHT30;60354;47.798;12.472;2023-08-24T05:07:57;20.85;88.99
72380;SHT30;60354;47.798;12.472;2023-08-24T05:10:23;21.05;88.42
72380;SHT30;60354;47.798;12.472;2023-08-24T05:12:48;21.03;88.67
72380;SHT30;60354;47.798;12.472;2023-08-24T05:15:14;21.13;88.66
72380;SHT30;60354;47.798;12.472;2023-08-24T05:17:40;21.22;88.14
72380;SHT30;60354;47.798;12.472;2023-08-24T05:20:06;21.37;87.67
72380;SHT30;60354;47.798;12.472;2023-08-24T05:22:33;21.53;87.49
72380;SHT30;60354;47.798;12.472;2023-08-24T05:24:59;21.63;87.35
72380;SHT30;60354;47.798;12.472;2023-08-24T05:27:25;21.57;87.50
72380;SHT30;60354;47.798;12.472;2023-08-24T05:29:50;21.58;87.32
72380;SHT30;60354;47.798;12.472;2023-08-24T05:32:16;21.56;87.58
72380;SHT30;60354;47.798;12.472;2023-08-24T05:34:41;21.53;87.60
72380;SHT30;60354;47.798;12.472;2023-08-24T05:37:07;21.45;87.88
72380;SHT30;60354;47.798;12.472;2023-08-24T05:39:32;21.53;87.94
72380;SHT30;60354;47.798;12.472;2023-08-24T05:41:58;21.61;87.87
72380;SHT30;60354;47.798;12.472;2023-08-24T05:44:23;21.71;87.77
72380;SHT30;60354;47.798;12.472;2023-08-24T05:46:49;21.84;87.45
72380;SHT30;60354;47.798;12.472;2023-08-24T05:49:14;21.86;87.53
72380;SHT30;60354;47.798;12.472;2023-08-24T05:51:40;21.80;88.15
72380;SHT30;60354;47.798;12.472;2023-08-24T05:54:05;21.90;87.69
72380;SHT30;60354;47.798;12.472;2023-08-24T05:56:31;22.09;87.18
72380;SHT30;60354;47.798;12.472;2023-08-24T05:58:58;22.28;86.18
72380;SHT30;60354;47.798;12.472;2023-08-24T06:01:24;22.38;85.60
72380;SHT30;60354;47.798;12.472;2023-08-24T06:03:50;22.46;85.73
72380;SHT30;60354;47.798;12.472;2023-08-24T06:06:16;22.66;85.25
72380;SHT30;60354;47.798;12.472;2023-08-24T06:08:42;22.87;84.69
72380;SHT30;60354;47.798;12.472;2023-08-24T06:11:07;23.10;84.15
72380;SHT30;60354;47.798;12.472;2023-08-24T06:13:33;23.11;83.97
72380;SHT30;60354;47.798;12.472;2023-08-24T06:15:58;23.13;84.46
72380;SHT30;60354;47.798;12.472;2023-08-24T06:18:24;23.34;84.06
72380;SHT30;60354;47.798;12.472;2023-08-24T06:20:49;23.44;83.71
72380;SHT30;60354;47.798;12.472;2023-08-24T06:23:18;23.74;82.87
72380;SHT30;60354;47.798;12.472;2023-08-24T06:25:44;24.05;81.29
72380;SHT30;60354;47.798;12.472;2023-08-24T06:28:10;24.27;79.92
72380;SHT30;60354;47.798;12.472;2023-08-24T06:30:39;24.37;80.62
72380;SHT30;60354;47.798;12.472;2023-08-24T06:33:06;24.47;80.26
72380;SHT30;60354;47.798;12.472;2023-08-24T06:35:32;24.70;79.84
72380;SHT30;60354;47.798;12.472;2023-08-24T06:37:58;24.91;79.46
72380;SHT30;60354;47.798;12.472;2023-08-24T06:40:24;25.14;78.56
72380;SHT30;60354;47.798;12.472;2023-08-24T06:42:49;25.24;77.66
72380;SHT30;60354;47.798;12.472;2023-08-24T06:45:15;25.15;77.50
72380;SHT30;60354;47.798;12.472;2023-08-24T06:47:42;25.14;78.16
72380;SHT30;60354;47.798;12.472;2023-08-24T06:50:08;25.52;76.71
72380;SHT30;60354;47.798;12.472;2023-08-24T06:52:33;25.50;74.92
72380;SHT30;60354;47.798;12.472;2023-08-24T06:54:59;25.59;75.11
72380;SHT30;60354;47.798;12.472;2023-08-24T06:57:25;25.79;75.50
72380;SHT30;60354;47.798;12.472;2023-08-24T06:59:50;25.89;75.92
72380;SHT30;60354;47.798;12.472;2023-08-24T07:02:16;25.82;75.42
72380;SHT30;60354;47.798;12.472;2023-08-24T07:04:43;25.73;76.69
72380;SHT30;60354;47.798;12.472;2023-08-24T07:07:09;25.94;76.67
72380;SHT30;60354;47.798;12.472;2023-08-24T07:09:35;26.08;76.20
72380;SHT30;60354;47.798;12.472;2023-08-24T07:12:02;26.06;75.46
72380;SHT30;60354;47.798;12.472;2023-08-24T07:14:28;26.27;74.55
72380;SHT30;60354;47.798;12.472;2023-08-24T07:16:54;26.54;73.73
72380;SHT30;60354;47.798;12.472;2023-08-24T07:19:19;26.62;74.16
72380;SHT30;60354;47.798;12.472;2023-08-24T07:21:46;26.85;73.83
72380;SHT30;60354;47.798;12.472;2023-08-24T07:24:11;26.99;73.27
72380;SHT30;60354;47.798;12.472;2023-08-24T07:26:37;27.19;72.52
72380;SHT30;60354;47.798;12.472;2023-08-24T07:29:02;26.98;72.25
72380;SHT30;60354;47.798;12.472;2023-08-24T07:31:28;27.30;71.80
72380;SHT30;60354;47.798;12.472;2023-08-24T07:33:53;27.42;71.18
72380;SHT30;60354;47.798;12.472;2023-08-24T07:36:19;27.49;72.36
72380;SHT30;60354;47.798;12.472;2023-08-24T07:38:45;27.64;72.55
72380;SHT30;60354;47.798;12.472;2023-08-24T07:41:12;27.81;69.48
72380;SHT30;60354;47.798;12.472;2023-08-24T07:43:38;27.97;68.48
72380;SHT30;60354;47.798;12.472;2023-08-24T07:46:03;28.11;68.92
72380;SHT30;60354;47.798;12.472;2023-08-24T07:48:30;28.26;67.83
72380;SHT30;60354;47.798;12.472;2023-08-24T07:50:55;28.31;67.30
72380;SHT30;60354;47.798;12.472;2023-08-24T07:53:21;28.41;66.70
72380;SHT30;60354;47.798;12.472;2023-08-24T07:55:47;28.59;67.32
72380;SHT30;60354;47.798;12.472;2023-08-24T07:58:12;28.65;68.71
72380;SHT30;60354;47.798;12.472;2023-08-24T08:00:38;28.80;67.93
72380;SHT30;60354;47.798;12.472;2023-08-24T08:03:04;28.76;68.94
72380;SHT30;60354;47.798;12.472;2023-08-24T08:05:30;29.08;66.77
72380;SHT30;60354;47.798;12.472;2023-08-24T08:07:55;29.18;67.51
72380;SHT30;60354;47.798;12.472;2023-08-24T08:10:21;29.00;68.47
72380;SHT30;60354;47.798;12.472;2023-08-24T08:12:47;28.60;69.40
72380;SHT30;60354;47.798;12.472;2023-08-24T08:15:12;28.87;68.99
72380;SHT30;60354;47.798;12.472;2023-08-24T08:17:38;28.73;69.40
72380;SHT30;60354;47.798;12.472;2023-08-24T08:20:04;28.65;69.44
72380;SHT30;60354;47.798;12.472;2023-08-24T08:22:29;28.80;69.09
72380;SHT30;60354;47.798;12.472;2023-08-24T08:24:55;28.92;68.45
72380;SHT30;60354;47.798;12.472;2023-08-24T08:27:22;28.65;68.58
72380;SHT30;60354;47.798;12.472;2023-08-24T08:29:48;28.76;68.19
72380;SHT30;60354;47.798;12.472;2023-08-24T08:32:13;28.83;67.69
72380;SHT30;60354;47.798;12.472;2023-08-24T08:34:39;29.10;66.79
72380;SHT30;60354;47.798;12.472;2023-08-24T08:37:04;29.14;67.05
72380;SHT30;60354;47.798;12.472;2023-08-24T08:39:32;29.06;67.91
72380;SHT30;60354;47.798;12.472;2023-08-24T08:41:57;28.95;67.91
72380;SHT30;60354;47.798;12.472;2023-08-24T08:44:25;29.04;67.26
72380;SHT30;60354;47.798;12.472;2023-08-24T08:46:51;29.06;67.68
72380;SHT30;60354;47.798;12.472;2023-08-24T08:49:17;29.14;67.82
72380;SHT30;60354;47.798;12.472;2023-08-24T08:51:44;29.51;66.44
72380;SHT30;60354;47.798;12.472;2023-08-24T08:54:11;29.58;66.38
72380;SHT30;60354;47.798;12.472;2023-08-24T08:56:37;29.53;66.57
72380;SHT30;60354;47.798;12.472;2023-08-24T08:59:09;29.72;66.19
72380;SHT30;60354;47.798;12.472;2023-08-24T09:01:37;29.95;64.91
72380;SHT30;60354;47.798;12.472;2023-08-24T09:04:04;29.82;65.78
72380;SHT30;60354;47.798;12.472;2023-08-24T09:06:31;29.78;65.47
72380;SHT30;60354;47.798;12.472;2023-08-24T09:08:56;29.88;65.59
72380;SHT30;60354;47.798;12.472;2023-08-24T09:11:22;30.29;65.52
72380;SHT30;60354;47.798;12.472;2023-08-24T09:13:49;30.01;65.08
72380;SHT30;60354;47.798;12.472;2023-08-24T09:16:14;30.06;65.70
72380;SHT30;60354;47.798;12.472;2023-08-24T09:18:43;30.15;65.11
72380;SHT30;60354;47.798;12.472;2023-08-24T09:21:12;30.33;64.83
72380;SHT30;60354;47.798;12.472;2023-08-24T09:23:38;30.10;64.10
72380;SHT30;60354;47.798;12.472;2023-08-24T09:26:08;30.16;64.56
72380;SHT30;60354;47.798;12.472;2023-08-24T09:28:33;30.39;63.80
72380;SHT30;60354;47.798;12.472;2023-08-24T09:31:01;30.54;64.53
72380;SHT30;60354;47.798;12.472;2023-08-24T09:33:29;30.75;63.61
72380;SHT30;60354;47.798;12.472;2023-08-24T09:35:55;30.92;63.40
72380;SHT30;60354;47.798;12.472;2023-08-24T09:38:26;30.81;63.87
72380;SHT30;60354;47.798;12.472;2023-08-24T09:40:53;30.75;64.12
72380;SHT30;60354;47.798;12.472;2023-08-24T09:43:20;30.84;65.10
72380;SHT30;60354;47.798;12.472;2023-08-24T09:45:54;30.73;65.04
72380;SHT30;60354;47.798;12.472;2023-08-24T09:48:19;30.84;64.09
72380;SHT30;60354;47.798;12.472;2023-08-24T09:50:47;31.28;63.20
72380;SHT30;60354;47.798;12.472;2023-08-24T09:53:23;31.08;64.21
72380;SHT30;60354;47.798;12.472;2023-08-24T09:55:54;31.07;63.93
72380;SHT30;60354;47.798;12.472;2023-08-24T09:58:22;31.07;63.66
72380;SHT30;60354;47.798;12.472;2023-08-24T10:00:49;30.77;63.60
72380;SHT30;60354;47.798;12.472;2023-08-24T10:03:17;31.10;63.92
72380;SHT30;60354;47.798;12.472;2023-08-24T10:05:57;31.02;64.39
72380;SHT30;60354;47.798;12.472;2023-08-24T10:08:27;31.45;63.12
72380;SHT30;60354;47.798;12.472;2023-08-24T10:10:55;31.25;63.07
72380;SHT30;60354;47.798;12.472;2023-08-24T10:13:29;30.98;62.48
72380;SHT30;60354;47.798;12.472;2023-08-24T10:15:57;31.29;62.41
72380;SHT30;60354;47.798;12.472;2023-08-24T10:18:23;31.19;62.10
72380;SHT30;60354;47.798;12.472;2023-08-24T10:20:49;31.47;62.02
72380;SHT30;60354;47.798;12.472;2023-08-24T10:23:15;31.39;62.13
72380;SHT30;60354;47.798;12.472;2023-08-24T10:25:42;31.24;61.63
72380;SHT30;60354;47.798;12.472;2023-08-24T10:28:10;30.87;62.86
72380;SHT30;60354;47.798;12.472;2023-08-24T10:30:36;31.29;62.84
72380;SHT30;60354;47.798;12.472;2023-08-24T10:33:05;31.28;62.07
72380;SHT30;60354;47.798;12.472;2023-08-24T10:35:31;31.35;61.74
72380;SHT30;60354;47.798;12.472;2023-08-24T10:37:58;31.21;62.80
72380;SHT30;60354;47.798;12.472;2023-08-24T10:40:34;31.18;63.14
72380;SHT30;60354;47.798;12.472;2023-08-24T10:43:04;31.16;62.37
72380;SHT30;60354;47.798;12.472;2023-08-24T10:48:27;31.41;61.89
72380;SHT30;60354;47.798;12.472;2023-08-24T10:56:16;31.62;61.23
72380;SHT30;60354;47.798;12.472;2023-08-24T10:58:43;31.43;60.50
72380;SHT30;60354;47.798;12.472;2023-08-24T11:03:49;31.55;60.41
72380;SHT30;60354;47.798;12.472;2023-08-24T11:06:22;31.58;60.72
72380;SHT30;60354;47.798;12.472;2023-08-24T11:08:49;31.29;61.26
72380;SHT30;60354;47.798;12.472;2023-08-24T11:11:24;31.80;61.99
72380;SHT30;60354;47.798;12.472;2023-08-24T11:16:48;32.33;60.50
72380;SHT30;60354;47.798;12.472;2023-08-24T11:19:14;32.43;59.30
72380;SHT30;60354;47.798;12.472;2023-08-24T11:21:44;32.47;59.16
72380;SHT30;60354;47.798;12.472;2023-08-24T11:24:12;32.68;59.60
72380;SHT30;60354;47.798;12.472;2023-08-24T11:26:44;32.47;59.08
72380;SHT30;60354;47.798;12.472;2023-08-24T11:29:10;32.23;59.92
72380;SHT30;60354;47.798;12.472;2023-08-24T11:31:37;32.09;59.18
72380;SHT30;60354;47.798;12.472;2023-08-24T11:34:03;32.21;59.61
72380;SHT30;60354;47.798;12.472;2023-08-24T11:36:30;32.03;60.12
72380;SHT30;60354;47.798;12.472;2023-08-24T11:38:58;31.58;60.54
72380;SHT30;60354;47.798;12.472;2023-08-24T11:41:24;31.63;59.79
72380;SHT30;60354;47.798;12.472;2023-08-24T11:43:58;31.85;61.56
72380;SHT30;60354;47.798;12.472;2023-08-24T11:46:24;32.17;60.64
72380;SHT30;60354;47.798;12.472;2023-08-24T11:48:50;32.33;59.77
72380;SHT30;60354;47.798;12.472;2023-08-24T11:51:16;32.35;59.15
72380;SHT30;60354;47.798;12.472;2023-08-24T11:53:43;32.17;59.10
72380;SHT30;60354;47.798;12.472;2023-08-24T11:56:10;32.34;59.16
72380;SHT30;60354;47.798;12.472;2023-08-24T11:58:40;32.03;58.70
72380;SHT30;60354;47.798;12.472;2023-08-24T12:01:09;32.03;59.02
72380;SHT30;60354;47.798;12.472;2023-08-24T12:03:36;31.90;59.41
72380;SHT30;60354;47.798;12.472;2023-08-24T12:06:02;32.20;59.44
72380;SHT30;60354;47.798;12.472;2023-08-24T12:08:37;32.33;61.02
72380;SHT30;60354;47.798;12.472;2023-08-24T12:11:16;32.12;59.08
72380;SHT30;60354;47.798;12.472;2023-08-24T12:13:49;31.93;59.42
72380;SHT30;60354;47.798;12.472;2023-08-24T12:16:16;32.12;59.30
72380;SHT30;60354;47.798;12.472;2023-08-24T12:18:54;32.07;59.87
72380;SHT30;60354;47.798;12.472;2023-08-24T12:21:21;32.16;59.38
72380;SHT30;60354;47.798;12.472;2023-08-24T12:24:04;32.13;58.86
72380;SHT30;60354;47.798;12.472;2023-08-24T12:26:32;32.04;60.40
72380;SHT30;60354;47.798;12.472;2023-08-24T12:29:08;32.04;58.71
72380;SHT30;60354;47.798;12.472;2023-08-24T12:31:34;32.25;58.80
72380;SHT30;60354;47.798;12.472;2023-08-24T12:34:06;32.30;59.10
72380;SHT30;60354;47.798;12.472;2023-08-24T12:36:36;32.31;59.11
72380;SHT30;60354;47.798;12.472;2023-08-24T12:39:03;32.24;60.19
72380;SHT30;60354;47.798;12.472;2023-08-24T12:41:30;32.21;59.35
72380;SHT30;60354;47.798;12.472;2023-08-24T12:43:56;32.21;60.43
72380;SHT30;60354;47.798;12.472;2023-08-24T12:46:21;32.31;59.74
72380;SHT30;60354;47.798;12.472;2023-08-24T12:48:47;32.40;58.07
72380;SHT30;60354;47.798;12.472;2023-08-24T12:51:12;32.40;58.27
72380;SHT30;60354;47.798;12.472;2023-08-24T12:53:38;32.28;59.08
72380;SHT30;60354;47.798;12.472;2023-08-24T12:56:04;32.34;58.92
72380;SHT30;60354;47.798;12.472;2023-08-24T12:58:30;32.14;57.71
72380;SHT30;60354;47.798;12.472;2023-08-24T13:00:55;32.24;58.54
72380;SHT30;60354;47.798;12.472;2023-08-24T13:03:21;32.16;59.10
72380;SHT30;60354;47.798;12.472;2023-08-24T13:05:46;32.43;59.42
72380;SHT30;60354;47.798;12.472;2023-08-24T13:08:13;32.34;58.18
72380;SHT30;60354;47.798;12.472;2023-08-24T13:10:38;32.38;58.92
72380;SHT30;60354;47.798;12.472;2023-08-24T13:13:04;32.61;58.12
72380;SHT30;60354;47.798;12.472;2023-08-24T13:15:29;32.45;57.25
72380;SHT30;60354;47.798;12.472;2023-08-24T13:17:55;32.20;57.16
72380;SHT30;60354;47.798;12.472;2023-08-24T13:20:21;32.33;58.06
72380;SHT30;60354;47.798;12.472;2023-08-24T13:22:47;32.43;58.00
72380;SHT30;60354;47.798;12.472;2023-08-24T13:25:12;32.47;58.49
72380;SHT30;60354;47.798;12.472;2023-08-24T13:27:38;32.43;57.55
72380;SHT30;60354;47.798;12.472;2023-08-24T13:30:03;32.43;57.47
72380;SHT30;60354;47.798;12.472;2023-08-24T13:32:29;32.47;57.97
72380;SHT30;60354;47.798;12.472;2023-08-24T13:34:55;32.50;57.67
72380;SHT30;60354;47.798;12.472;2023-08-24T13:37:21;32.60;57.62
72380;SHT30;60354;47.798;12.472;2023-08-24T13:39:47;32.70;57.89
72380;SHT30;60354;47.798;12.472;2023-08-24T13:42:13;32.60;56.55
72380;SHT30;60354;47.798;12.472;2023-08-24T13:44:38;32.47;57.24
72380;SHT30;60354;47.798;12.472;2023-08-24T13:47:04;32.51;57.69
72380;SHT30;60354;47.798;12.472;2023-08-24T13:49:30;32.45;58.28
72380;SHT30;60354;47.798;12.472;2023-08-24T13:51:55;32.43;58.51
72380;SHT30;60354;47.798;12.472;2023-08-24T13:54:20;32.51;58.40
72380;SHT30;60354;47.798;12.472;2023-08-24T13:56:47;32.57;58.31
72380;SHT30;60354;47.798;12.472;2023-08-24T13:59:14;32.57;58.15
72380;SHT30;60354;47.798;12.472;2023-08-24T14:01:41;32.44;58.50
72380;SHT30;60354;47.798;12.472;2023-08-24T14:04:07;32.47;59.56
72380;SHT30;60354;47.798;12.472;2023-08-24T14:06:33;32.40;59.86
72380;SHT30;60354;47.798;12.472;2023-08-24T14:09:03;32.34;59.40
72380;SHT30;60354;47.798;12.472;2023-08-24T14:11:30;32.40;59.47
72380;SHT30;60354;47.798;12.472;2023-08-24T14:13:55;32.41;60.54
72380;SHT30;60354;47.798;12.472;2023-08-24T14:16:21;32.35;60.48
72380;SHT30;60354;47.798;12.472;2023-08-24T14:18:48;32.40;60.62
72380;SHT30;60354;47.798;12.472;2023-08-24T14:21:14;32.38;61.34
72380;SHT30;60354;47.798;12.472;2023-08-24T14:23:40;32.35;60.98
72380;SHT30;60354;47.798;12.472;2023-08-24T14:26:06;32.28;60.56
72380;SHT30;60354;47.798;12.472;2023-08-24T14:28:52;32.25;61.51
72380;SHT30;60354;47.798;12.472;2023-08-24T14:31:25;32.19;60.63
72380;SHT30;60354;47.798;12.472;2023-08-24T14:33:51;32.16;61.14
72380;SHT30;60354;47.798;12.472;2023-08-24T14:36:18;32.19;60.83
72380;SHT30;60354;47.798;12.472;2023-08-24T14:38:45;32.12;60.77
72380;SHT30;60354;47.798;12.472;2023-08-24T14:41:12;32.06;60.47
72380;SHT30;60354;47.798;12.472;2023-08-24T14:43:38;32.07;60.76
72380;SHT30;60354;47.798;12.472;2023-08-24T14:46:05;32.10;60.64
72380;SHT30;60354;47.798;12.472;2023-08-24T14:48:30;32.06;60.58
72380;SHT30;60354;47.798;12.472;2023-08-24T14:50:56;32.02;62.15
72380;SHT30;60354;47.798;12.472;2023-08-24T14:53:22;32.10;60.47
72380;SHT30;60354;47.798;12.472;2023-08-24T14:55:48;32.23;59.54
72380;SHT30;60354;47.798;12.472;2023-08-24T14:58:14;32.19;59.72
72380;SHT30;60354;47.798;12.472;2023-08-24T15:00:39;32.16;60.14
72380;SHT30;60354;47.798;12.472;2023-08-24T15:03:05;32.16;61.04
72380;SHT30;60354;47.798;12.472;2023-08-24T15:05:31;32.19;61.32
72380;SHT30;60354;47.798;12.472;2023-08-24T15:07:56;32.20;60.68
72380;SHT30;60354;47.798;12.472;2023-08-24T15:10:22;32.14;59.78
72380;SHT30;60354;47.798;12.472;2023-08-24T15:12:47;32.04;59.28
72380;SHT30;60354;47.798;12.472;2023-08-24T15:15:13;32.10;59.44
72380;SHT30;60354;47.798;12.472;2023-08-24T15:17:43;32.10;60.69
72380;SHT30;60354;47.798;12.472;2023-08-24T15:20:09;32.13;60.18
72380;SHT30;60354;47.798;12.472;2023-08-24T15:22:35;32.02;60.53
72380;SHT30;60354;47.798;12.472;2023-08-24T15:25:00;31.96;60.26
72380;SHT30;60354;47.798;12.472;2023-08-24T15:27:28;31.89;60.46
72380;SHT30;60354;47.798;12.472;2023-08-24T15:29:53;31.86;60.72
72380;SHT30;60354;47.798;12.472;2023-08-24T15:32:19;31.90;61.61
72380;SHT30;60354;47.798;12.472;2023-08-24T15:34:45;31.93;60.61